sensor_id;sensor_type;location;lat;lon;timestamp;P1;durP1;ratioP1;P2;durP2;ratioP2
25917;SDS011;13899;51.174;4.456;2022-12-11T00:00:48;28.83;;;16.87;;
25917;SDS011;13899;51.174;4.456;2022-12-11T00:03:17;32.20;;;18.77;;
25917;SDS011;13899;51.174;4.456;2022-12-11T00:05:43;34.92;;;19.17;;
25917;SDS011;13899;51.174;4.456;2022-12-11T00:08:10;32.97;;;19.52;;
25917;SDS011;13899;51.174;4.456;2022-12-11T00:10:36;33.00;;;19.60;;
25917;SDS011;13899;51.174;4.456;2022-12-11T00:13:03;37.42;;;22.38;;
25917;SDS011;13899;51.174;4.456;2022-12-11T00:15:28;39.83;;;20.83;;
25917;SDS011;13899;51.174;4.456;2022-12-11T00:17:54;39.37;;;22.00;;
25917;SDS011;13899;51.174;4.456;2022-12-11T00:20:20;28.27;;;15.97;;
25917;SDS011;13899;51.174;4.456;2022-12-11T00:22:46;39.57;;;20.20;;
25917;SDS011;13899;51.174;4.456;2022-12-11T00:25:11;37.23;;;19.67;;
25917;SDS011;13899;51.174;4.456;2022-12-11T00:27:37;31.60;;;17.93;;
25917;SDS011;13899;51.174;4.456;2022-12-11T00:30:03;32.10;;;16.33;;
25917;SDS011;13899;51.174;4.456;2022-12-11T00:32:29;31.40;;;19.25;;
25917;SDS011;13899;51.174;4.456;2022-12-11T00:34:55;25.08;;;15.98;;
25917;SDS011;13899;51.174;4.456;2022-12-11T00:37:21;29.30;;;18.10;;
25917;SDS011;13899;51.174;4.456;2022-12-11T00:39:47;33.17;;;20.10;;
25917;SDS011;13899;51.174;4.456;2022-12-11T00:42:13;34.43;;;19.50;;
25917;SDS011;13899;51.174;4.456;2022-12-11T00:44:38;23.53;;;14.50;;
25917;SDS011;13899;51.174;4.456;2022-12-11T00:47:04;32.13;;;18.03;;
25917;SDS011;13899;51.174;4.456;2022-12-11T00:49:30;31.07;;;18.17;;
25917;SDS011;13899;51.174;4.456;2022-12-11T00:51:55;26.17;;;15.37;;
25917;SDS011;13899;51.174;4.456;2022-12-11T00:54:21;27.33;;;18.77;;
25917;SDS011;13899;51.174;4.456;2022-12-11T00:56:47;25.47;;;15.20;;
25917;SDS011;13899;51.174;4.456;2022-12-11T00:59:12;28.97;;;14.53;;
25917;SDS011;13899;51.174;4.456;2022-12-11T01:01:38;23.70;;;13.47;;
25917;SDS011;13899;51.174;4.456;2022-12-11T01:04:03;31.37;;;16.23;;
25917;SDS011;13899;51.174;4.456;2022-12-11T01:06:29;26.43;;;15.90;;
25917;SDS011;13899;51.174;4.456;2022-12-11T01:08:55;28.50;;;17.57;;
25917;SDS011;13899;51.174;4.456;2022-12-11T01:11:39;29.52;;;17.05;;
25917;SDS011;13899;51.174;4.456;2022-12-11T01:14:06;26.00;;;17.05;;
25917;SDS011;13899;51.174;4.456;2022-12-11T01:18:58;19.93;;;12.53;;
25917;SDS011;13899;51.174;4.456;2022-12-11T01:21:24;25.43;;;15.80;;
25917;SDS011;13899;51.174;4.456;2022-12-11T01:23:51;28.02;;;17.48;;
25917;SDS011;13899;51.174;4.456;2022-12-11T01:26:17;26.97;;;17.20;;
25917;SDS011;13899;51.174;4.456;2022-12-11T01:28:43;27.63;;;17.70;;
25917;SDS011;13899;51.174;4.456;2022-12-11T01:31:10;28.20;;;16.65;;
25917;SDS011;13899;51.174;4.456;2022-12-11T01:33:37;28.98;;;17.50;;
25917;SDS011;13899;51.174;4.456;2022-12-11T01:36:07;23.80;;;14.80;;
25917;SDS011;13899;51.174;4.456;2022-12-11T01:38:34;29.30;;;18.00;;
25917;SDS011;13899;51.174;4.456;2022-12-11T01:41:00;29.03;;;17.17;;
25917;SDS011;13899;51.174;4.456;2022-12-11T01:43:26;31.50;;;16.60;;
25917;SDS011;13899;51.174;4.456;2022-12-11T01:45:51;28.77;;;17.57;;
25917;SDS011;13899;51.174;4.456;2022-12-11T01:48:18;20.37;;;11.70;;
25917;SDS011;13899;51.174;4.456;2022-12-11T01:51:08;22.98;;;14.68;;
25917;SDS011;13899;51.174;4.456;2022-12-11T01:53:34;24.02;;;15.75;;
25917;SDS011;13899;51.174;4.456;2022-12-11T01:56:05;26.17;;;15.10;;
25917;SDS011;13899;51.174;4.456;2022-12-11T01:58:33;25.95;;;15.95;;
25917;SDS011;13899;51.174;4.456;2022-12-11T02:01:04;24.48;;;15.05;;
25917;SDS011;13899;51.174;4.456;2022-12-11T02:03:29;25.20;;;16.50;;
25917;SDS011;13899;51.174;4.456;2022-12-11T02:05:59;27.33;;;15.80;;
25917;SDS011;13899;51.174;4.456;2022-12-11T02:08:26;28.17;;;15.65;;
25917;SDS011;13899;51.174;4.456;2022-12-11T02:11:05;24.20;;;14.27;;
25917;SDS011;13899;51.174;4.456;2022-12-11T02:16:19;27.77;;;15.77;;
25917;SDS011;13899;51.174;4.456;2022-12-11T02:19:00;30.60;;;16.20;;
25917;SDS011;13899;51.174;4.456;2022-12-11T02:21:33;24.98;;;15.43;;
25917;SDS011;13899;51.174;4.456;2022-12-11T02:27:02;27.02;;;15.77;;
25917;SDS011;13899;51.174;4.456;2022-12-11T02:29:59;28.27;;;15.55;;
25917;SDS011;13899;51.174;4.456;2022-12-11T02:32:36;27.52;;;14.93;;
25917;SDS011;13899;51.174;4.456;2022-12-11T02:35:13;28.88;;;16.17;;
25917;SDS011;13899;51.174;4.456;2022-12-11T02:37:46;27.33;;;16.27;;
25917;SDS011;13899;51.174;4.456;2022-12-11T02:40:14;25.38;;;15.52;;
25917;SDS011;13899;51.174;4.456;2022-12-11T02:42:46;29.00;;;15.88;;
25917;SDS011;13899;51.174;4.456;2022-12-11T02:45:14;25.40;;;15.25;;
25917;SDS011;13899;51.174;4.456;2022-12-11T02:47:42;32.58;;;16.77;;
25917;SDS011;13899;51.174;4.456;2022-12-11T02:50:12;34.50;;;16.95;;
25917;SDS011;13899;51.174;4.456;2022-12-11T02:52:41;26.15;;;15.57;;
25917;SDS011;13899;51.174;4.456;2022-12-11T02:55:08;29.40;;;15.18;;
25917;SDS011;13899;51.174;4.456;2022-12-11T02:57:54;28.52;;;15.13;;
25917;SDS011;13899;51.174;4.456;2022-12-11T03:00:30;28.13;;;15.32;;
25917;SDS011;13899;51.174;4.456;2022-12-11T03:02:56;27.88;;;16.33;;
25917;SDS011;13899;51.174;4.456;2022-12-11T03:05:22;27.97;;;14.53;;
25917;SDS011;13899;51.174;4.456;2022-12-11T03:07:48;30.63;;;15.77;;
25917;SDS011;13899;51.174;4.456;2022-12-11T03:10:14;30.70;;;15.87;;
25917;SDS011;13899;51.174;4.456;2022-12-11T03:12:43;27.17;;;16.58;;
25917;SDS011;13899;51.174;4.456;2022-12-11T03:15:13;30.88;;;16.30;;
25917;SDS011;13899;51.174;4.456;2022-12-11T03:17:51;25.85;;;15.23;;
25917;SDS011;13899;51.174;4.456;2022-12-11T03:20:42;27.63;;;15.98;;
25917;SDS011;13899;51.174;4.456;2022-12-11T03:23:26;30.08;;;15.88;;
25917;SDS011;13899;51.174;4.456;2022-12-11T03:26:05;25.40;;;14.68;;
25917;SDS011;13899;51.174;4.456;2022-12-11T03:29:09;28.58;;;14.70;;
25917;SDS011;13899;51.174;4.456;2022-12-11T03:34:02;33.92;;;17.02;;
25917;SDS011;13899;51.174;4.456;2022-12-11T03:36:33;29.55;;;16.98;;
25917;SDS011;13899;51.174;4.456;2022-12-11T03:39:12;27.13;;;15.85;;
25917;SDS011;13899;51.174;4.456;2022-12-11T03:41:43;31.73;;;18.63;;
25917;SDS011;13899;51.174;4.456;2022-12-11T03:44:10;23.35;;;15.20;;
25917;SDS011;13899;51.174;4.456;2022-12-11T03:46:37;25.83;;;16.23;;
25917;SDS011;13899;51.174;4.456;2022-12-11T03:49:06;26.45;;;16.00;;
25917;SDS011;13899;51.174;4.456;2022-12-11T03:51:35;30.88;;;17.90;;
25917;SDS011;13899;51.174;4.456;2022-12-11T03:54:02;30.40;;;16.48;;
25917;SDS011;13899;51.174;4.456;2022-12-11T03:56:29;23.27;;;14.17;;
25917;SDS011;13899;51.174;4.456;2022-12-11T03:58:56;27.25;;;16.60;;
25917;SDS011;13899;51.174;4.456;2022-12-11T04:01:22;22.43;;;12.60;;
25917;SDS011;13899;51.174;4.456;2022-12-11T04:03:48;28.60;;;16.40;;
25917;SDS011;13899;51.174;4.456;2022-12-11T04:06:13;31.07;;;18.30;;
25917;SDS011;13899;51.174;4.456;2022-12-11T04:08:39;35.50;;;17.13;;
25917;SDS011;13899;51.174;4.456;2022-12-11T04:11:04;34.73;;;17.77;;
25917;SDS011;13899;51.174;4.456;2022-12-11T04:13:48;28.52;;;16.58;;
25917;SDS011;13899;51.174;4.456;2022-12-11T04:16:34;29.07;;;16.20;;
25917;SDS011;13899;51.174;4.456;2022-12-11T04:19:00;30.70;;;17.03;;
25917;SDS011;13899;51.174;4.456;2022-12-11T04:21:44;28.05;;;17.92;;
25917;SDS011;13899;51.174;4.456;2022-12-11T04:24:28;27.38;;;17.45;;
25917;SDS011;13899;51.174;4.456;2022-12-11T04:26:53;26.03;;;14.07;;
25917;SDS011;13899;51.174;4.456;2022-12-11T04:29:19;25.83;;;16.20;;
25917;SDS011;13899;51.174;4.456;2022-12-11T04:31:45;31.30;;;18.30;;
25917;SDS011;13899;51.174;4.456;2022-12-11T04:34:11;29.05;;;17.45;;
25917;SDS011;13899;51.174;4.456;2022-12-11T04:36:36;26.10;;;16.40;;
25917;SDS011;13899;51.174;4.456;2022-12-11T04:39:03;28.37;;;16.83;;
25917;SDS011;13899;51.174;4.456;2022-12-11T04:41:30;26.65;;;16.73;;
25917;SDS011;13899;51.174;4.456;2022-12-11T04:43:55;32.60;;;18.25;;
25917;SDS011;13899;51.174;4.456;2022-12-11T04:46:22;24.43;;;14.00;;
25917;SDS011;13899;51.174;4.456;2022-12-11T04:48:49;30.17;;;18.90;;
25917;SDS011;13899;51.174;4.456;2022-12-11T04:53:41;32.90;;;18.00;;
25917;SDS011;13899;51.174;4.456;2022-12-11T04:56:08;31.58;;;18.70;;
25917;SDS011;13899;51.174;4.456;2022-12-11T04:58:35;38.35;;;20.45;;
25917;SDS011;13899;51.174;4.456;2022-12-11T05:01:08;38.13;;;20.20;;
25917;SDS011;13899;51.174;4.456;2022-12-11T05:03:38;45.92;;;21.55;;
25917;SDS011;13899;51.174;4.456;2022-12-11T05:06:04;34.50;;;19.17;;
25917;SDS011;13899;51.174;4.456;2022-12-11T05:08:32;35.70;;;18.63;;
25917;SDS011;13899;51.174;4.456;2022-12-11T05:11:00;35.03;;;19.35;;
25917;SDS011;13899;51.174;4.456;2022-12-11T05:13:28;35.67;;;19.35;;
25917;SDS011;13899;51.174;4.456;2022-12-11T05:15:54;34.90;;;18.90;;
25917;SDS011;13899;51.174;4.456;2022-12-11T05:18:20;39.63;;;18.77;;
25917;SDS011;13899;51.174;4.456;2022-12-11T05:23:21;38.67;;;20.55;;
25917;SDS011;13899;51.174;4.456;2022-12-11T05:25:53;33.00;;;15.00;;
25917;SDS011;13899;51.174;4.456;2022-12-11T05:28:20;39.05;;;19.65;;
25917;SDS011;13899;51.174;4.456;2022-12-11T05:33:12;39.33;;;18.60;;
25917;SDS011;13899;51.174;4.456;2022-12-11T05:35:38;30.80;;;18.23;;
25917;SDS011;13899;51.174;4.456;2022-12-11T05:38:10;38.20;;;19.95;;
25917;SDS011;13899;51.174;4.456;2022-12-11T05:40:35;39.23;;;20.00;;
25917;SDS011;13899;51.174;4.456;2022-12-11T05:43:01;41.07;;;20.90;;
25917;SDS011;13899;51.174;4.456;2022-12-11T05:45:26;43.77;;;20.80;;
25917;SDS011;13899;51.174;4.456;2022-12-11T05:47:52;36.10;;;19.47;;
25917;SDS011;13899;51.174;4.456;2022-12-11T05:50:18;33.47;;;18.73;;
25917;SDS011;13899;51.174;4.456;2022-12-11T05:52:43;40.33;;;20.17;;
25917;SDS011;13899;51.174;4.456;2022-12-11T05:55:09;39.67;;;21.03;;
25917;SDS011;13899;51.174;4.456;2022-12-11T05:57:34;38.67;;;20.23;;
25917;SDS011;13899;51.174;4.456;2022-12-11T06:00:00;36.20;;;20.23;;
25917;SDS011;13899;51.174;4.456;2022-12-11T06:02:25;36.87;;;19.43;;
25917;SDS011;13899;51.174;4.456;2022-12-11T06:04:51;37.40;;;20.20;;
25917;SDS011;13899;51.174;4.456;2022-12-11T06:07:17;37.73;;;19.33;;
25917;SDS011;13899;51.174;4.456;2022-12-11T06:09:42;33.07;;;18.47;;
25917;SDS011;13899;51.174;4.456;2022-12-11T06:12:08;44.87;;;19.93;;
25917;SDS011;13899;51.174;4.456;2022-12-11T06:14:33;36.17;;;20.07;;
25917;SDS011;13899;51.174;4.456;2022-12-11T06:16:59;37.57;;;20.20;;
25917;SDS011;13899;51.174;4.456;2022-12-11T06:19:25;42.75;;;21.08;;
25917;SDS011;13899;51.174;4.456;2022-12-11T06:21:51;41.37;;;20.27;;
25917;SDS011;13899;51.174;4.456;2022-12-11T06:24:16;40.20;;;20.97;;
25917;SDS011;13899;51.174;4.456;2022-12-11T06:26:42;29.17;;;16.13;;
25917;SDS011;13899;51.174;4.456;2022-12-11T06:29:08;45.60;;;20.27;;
25917;SDS011;13899;51.174;4.456;2022-12-11T06:31:33;44.37;;;21.13;;
25917;SDS011;13899;51.174;4.456;2022-12-11T06:33:59;42.30;;;21.90;;
25917;SDS011;13899;51.174;4.456;2022-12-11T06:36:24;48.97;;;22.87;;
25917;SDS011;13899;51.174;4.456;2022-12-11T06:38:50;45.87;;;22.20;;
25917;SDS011;13899;51.174;4.456;2022-12-11T06:41:17;45.13;;;21.85;;
25917;SDS011;13899;51.174;4.456;2022-12-11T06:43:42;44.70;;;22.73;;
25917;SDS011;13899;51.174;4.456;2022-12-11T06:46:10;42.30;;;20.57;;
25917;SDS011;13899;51.174;4.456;2022-12-11T06:48:37;43.47;;;20.63;;
25917;SDS011;13899;51.174;4.456;2022-12-11T06:51:10;33.03;;;17.30;;
25917;SDS011;13899;51.174;4.456;2022-12-11T06:53:37;44.83;;;21.27;;
25917;SDS011;13899;51.174;4.456;2022-12-11T06:56:04;40.40;;;20.63;;
25917;SDS011;13899;51.174;4.456;2022-12-11T06:58:33;43.17;;;22.23;;
25917;SDS011;13899;51.174;4.456;2022-12-11T07:03:26;42.20;;;20.70;;
25917;SDS011;13899;51.174;4.456;2022-12-11T07:05:51;45.53;;;22.33;;
25917;SDS011;13899;51.174;4.456;2022-12-11T07:08:17;44.47;;;21.53;;
25917;SDS011;13899;51.174;4.456;2022-12-11T07:10:42;48.33;;;23.03;;
25917;SDS011;13899;51.174;4.456;2022-12-11T07:13:08;47.67;;;22.40;;
25917;SDS011;13899;51.174;4.456;2022-12-11T07:15:34;38.78;;;17.42;;
25917;SDS011;13899;51.174;4.456;2022-12-11T07:18:00;49.05;;;21.48;;
25917;SDS011;13899;51.174;4.456;2022-12-11T07:20:26;44.03;;;20.77;;
25917;SDS011;13899;51.174;4.456;2022-12-11T07:22:52;36.93;;;17.53;;
25917;SDS011;13899;51.174;4.456;2022-12-11T07:25:18;42.03;;;21.17;;
25917;SDS011;13899;51.174;4.456;2022-12-11T07:27:44;44.30;;;20.53;;
25917;SDS011;13899;51.174;4.456;2022-12-11T07:30:09;35.33;;;17.17;;
25917;SDS011;13899;51.174;4.456;2022-12-11T07:32:36;46.67;;;21.50;;
25917;SDS011;13899;51.174;4.456;2022-12-11T07:35:01;43.17;;;21.00;;
25917;SDS011;13899;51.174;4.456;2022-12-11T07:37:27;33.13;;;16.40;;
25917;SDS011;13899;51.174;4.456;2022-12-11T07:39:53;37.93;;;20.40;;
25917;SDS011;13899;51.174;4.456;2022-12-11T07:42:19;51.20;;;20.87;;
25917;SDS011;13899;51.174;4.456;2022-12-11T07:44:44;35.57;;;19.73;;
25917;SDS011;13899;51.174;4.456;2022-12-11T07:47:10;50.77;;;23.63;;
25917;SDS011;13899;51.174;4.456;2022-12-11T07:49:35;34.30;;;18.13;;
25917;SDS011;13899;51.174;4.456;2022-12-11T07:52:01;38.07;;;19.03;;
25917;SDS011;13899;51.174;4.456;2022-12-11T07:54:26;49.70;;;22.90;;
25917;SDS011;13899;51.174;4.456;2022-12-11T07:56:52;59.90;;;24.80;;
25917;SDS011;13899;51.174;4.456;2022-12-11T07:59:18;54.70;;;23.60;;
25917;SDS011;13899;51.174;4.456;2022-12-11T08:04:10;54.73;;;24.53;;
25917;SDS011;13899;51.174;4.456;2022-12-11T08:06:39;54.47;;;24.85;;
25917;SDS011;13899;51.174;4.456;2022-12-11T08:11:33;50.70;;;24.05;;
25917;SDS011;13899;51.174;4.456;2022-12-11T08:13:59;43.63;;;17.17;;
25917;SDS011;13899;51.174;4.456;2022-12-11T08:16:25;56.20;;;24.17;;
25917;SDS011;13899;51.174;4.456;2022-12-11T08:18:51;54.40;;;27.08;;
25917;SDS011;13899;51.174;4.456;2022-12-11T08:21:18;56.47;;;25.95;;
25917;SDS011;13899;51.174;4.456;2022-12-11T08:23:45;55.13;;;25.10;;
25917;SDS011;13899;51.174;4.456;2022-12-11T08:26:13;63.28;;;26.35;;
25917;SDS011;13899;51.174;4.456;2022-12-11T08:28:43;49.83;;;24.85;;
25917;SDS011;13899;51.174;4.456;2022-12-11T08:31:10;47.97;;;25.20;;
25917;SDS011;13899;51.174;4.456;2022-12-11T08:33:38;51.70;;;24.80;;
25917;SDS011;13899;51.174;4.456;2022-12-11T08:36:08;50.60;;;23.08;;
25917;SDS011;13899;51.174;4.456;2022-12-11T08:38:35;51.63;;;24.30;;
25917;SDS011;13899;51.174;4.456;2022-12-11T08:43:38;48.53;;;22.95;;
25917;SDS011;13899;51.174;4.456;2022-12-11T08:46:04;39.08;;;19.02;;
25917;SDS011;13899;51.174;4.456;2022-12-11T08:48:31;49.70;;;23.08;;
25917;SDS011;13899;51.174;4.456;2022-12-11T08:53:25;48.05;;;22.52;;
25917;SDS011;13899;51.174;4.456;2022-12-11T08:55:52;43.67;;;21.92;;
25917;SDS011;13899;51.174;4.456;2022-12-11T08:58:17;44.67;;;18.63;;
25917;SDS011;13899;51.174;4.456;2022-12-11T09:00:43;48.37;;;22.07;;
25917;SDS011;13899;51.174;4.456;2022-12-11T09:03:08;45.37;;;21.27;;
25917;SDS011;13899;51.174;4.456;2022-12-11T09:05:34;44.60;;;22.00;;
25917;SDS011;13899;51.174;4.456;2022-12-11T09:08:02;46.78;;;21.73;;
25917;SDS011;13899;51.174;4.456;2022-12-11T09:10:28;38.73;;;18.37;;
25917;SDS011;13899;51.174;4.456;2022-12-11T09:12:53;56.17;;;22.53;;
25917;SDS011;13899;51.174;4.456;2022-12-11T09:15:19;45.87;;;21.30;;
25917;SDS011;13899;51.174;4.456;2022-12-11T09:17:44;50.93;;;21.30;;
25917;SDS011;13899;51.174;4.456;2022-12-11T09:20:10;40.40;;;17.33;;
25917;SDS011;13899;51.174;4.456;2022-12-11T09:22:36;42.40;;;20.63;;
25917;SDS011;13899;51.174;4.456;2022-12-11T09:25:02;55.85;;;22.00;;
25917;SDS011;13899;51.174;4.456;2022-12-11T09:27:28;36.07;;;18.37;;
25917;SDS011;13899;51.174;4.456;2022-12-11T09:29:54;47.93;;;21.50;;
25917;SDS011;13899;51.174;4.456;2022-12-11T09:32:19;45.83;;;22.20;;
25917;SDS011;13899;51.174;4.456;2022-12-11T09:34:45;42.70;;;19.27;;
25917;SDS011;13899;51.174;4.456;2022-12-11T09:37:14;49.53;;;24.83;;
25917;SDS011;13899;51.174;4.456;2022-12-11T09:39:40;56.33;;;23.63;;
25917;SDS011;13899;51.174;4.456;2022-12-11T09:45:24;59.47;;;23.88;;
25917;SDS011;13899;51.174;4.456;2022-12-11T09:47:51;51.03;;;22.40;;
25917;SDS011;13899;51.174;4.456;2022-12-11T09:50:27;51.65;;;22.98;;
25917;SDS011;13899;51.174;4.456;2022-12-11T09:53:14;52.42;;;22.60;;
25917;SDS011;13899;51.174;4.456;2022-12-11T09:58:54;50.08;;;22.77;;
25917;SDS011;13899;51.174;4.456;2022-12-11T10:07:22;44.67;;;22.33;;
25917;SDS011;13899;51.174;4.456;2022-12-11T10:12:27;43.28;;;21.52;;
25917;SDS011;13899;51.174;4.456;2022-12-11T10:18:01;48.70;;;22.40;;
25917;SDS011;13899;51.174;4.456;2022-12-11T10:20:30;39.85;;;19.92;;
25917;SDS011;13899;51.174;4.456;2022-12-11T10:23:04;45.05;;;21.27;;
25917;SDS011;13899;51.174;4.456;2022-12-11T10:25:36;41.97;;;19.45;;
25917;SDS011;13899;51.174;4.456;2022-12-11T10:28:10;44.72;;;21.10;;
25917;SDS011;13899;51.174;4.456;2022-12-11T10:30:38;40.70;;;19.88;;
25917;SDS011;13899;51.174;4.456;2022-12-11T10:33:37;43.08;;;21.73;;
25917;SDS011;13899;51.174;4.456;2022-12-11T10:36:14;44.03;;;20.42;;
25917;SDS011;13899;51.174;4.456;2022-12-11T10:38:44;46.88;;;21.48;;
25917;SDS011;13899;51.174;4.456;2022-12-11T10:41:20;41.20;;;21.23;;
25917;SDS011;13899;51.174;4.456;2022-12-11T10:43:49;40.88;;;21.45;;
25917;SDS011;13899;51.174;4.456;2022-12-11T10:46:18;37.38;;;19.52;;
25917;SDS011;13899;51.174;4.456;2022-12-11T10:48:46;43.15;;;21.33;;
25917;SDS011;13899;51.174;4.456;2022-12-11T10:51:13;38.33;;;20.73;;
25917;SDS011;13899;51.174;4.456;2022-12-11T10:53:40;35.08;;;18.38;;
25917;SDS011;13899;51.174;4.456;2022-12-11T10:56:07;38.60;;;20.15;;
25917;SDS011;13899;51.174;4.456;2022-12-11T10:58:33;38.75;;;20.33;;
25917;SDS011;13899;51.174;4.456;2022-12-11T11:01:06;45.17;;;23.23;;
25917;SDS011;13899;51.174;4.456;2022-12-11T11:03:50;42.42;;;21.40;;
25917;SDS011;13899;51.174;4.456;2022-12-11T11:06:38;39.55;;;20.45;;
25917;SDS011;13899;51.174;4.456;2022-12-11T11:09:21;38.40;;;21.40;;
25917;SDS011;13899;51.174;4.456;2022-12-11T11:12:27;40.53;;;22.08;;
25917;SDS011;13899;51.174;4.456;2022-12-11T11:15:00;38.10;;;21.45;;
25917;SDS011;13899;51.174;4.456;2022-12-11T11:17:29;40.08;;;21.30;;
25917;SDS011;13899;51.174;4.456;2022-12-11T11:19:56;46.20;;;22.48;;
25917;SDS011;13899;51.174;4.456;2022-12-11T11:22:25;48.15;;;23.30;;
25917;SDS011;13899;51.174;4.456;2022-12-11T11:27:28;36.85;;;19.52;;
25917;SDS011;13899;51.174;4.456;2022-12-11T11:30:01;32.25;;;18.88;;
25917;SDS011;13899;51.174;4.456;2022-12-11T11:32:33;33.40;;;18.77;;
25917;SDS011;13899;51.174;4.456;2022-12-11T11:37:37;29.38;;;17.52;;
25917;SDS011;13899;51.174;4.456;2022-12-11T11:40:18;28.48;;;16.40;;
25917;SDS011;13899;51.174;4.456;2022-12-11T11:42:48;26.48;;;15.57;;
25917;SDS011;13899;51.174;4.456;2022-12-11T11:45:36;26.92;;;16.95;;
25917;SDS011;13899;51.174;4.456;2022-12-11T11:48:30;24.83;;;15.27;;
25917;SDS011;13899;51.174;4.456;2022-12-11T11:51:15;28.15;;;17.10;;
25917;SDS011;13899;51.174;4.456;2022-12-11T11:53:54;27.13;;;16.65;;
25917;SDS011;13899;51.174;4.456;2022-12-11T11:56:41;30.33;;;16.92;;
25917;SDS011;13899;51.174;4.456;2022-12-11T12:01:49;27.13;;;17.17;;
25917;SDS011;13899;51.174;4.456;2022-12-11T12:04:17;30.63;;;17.35;;
25917;SDS011;13899;51.174;4.456;2022-12-11T12:14:53;29.23;;;17.70;;
25917;SDS011;13899;51.174;4.456;2022-12-11T12:20:37;31.25;;;18.95;;
25917;SDS011;13899;51.174;4.456;2022-12-11T12:26:00;35.95;;;18.77;;
25917;SDS011;13899;51.174;4.456;2022-12-11T12:39:29;32.10;;;18.00;;
25917;SDS011;13899;51.174;4.456;2022-12-11T12:44:55;25.88;;;16.52;;
25917;SDS011;13899;51.174;4.456;2022-12-11T12:47:26;26.67;;;17.40;;
25917;SDS011;13899;51.174;4.456;2022-12-11T12:49:54;29.75;;;17.83;;
25917;SDS011;13899;51.174;4.456;2022-12-11T12:52:38;26.10;;;17.42;;
25917;SDS011;13899;51.174;4.456;2022-12-11T12:55:26;28.33;;;17.17;;
25917;SDS011;13899;51.174;4.456;2022-12-11T13:03:22;25.67;;;15.63;;
25917;SDS011;13899;51.174;4.456;2022-12-11T13:11:18;23.55;;;11.32;;
25917;SDS011;13899;51.174;4.456;2022-12-11T13:13:46;19.95;;;11.80;;
25917;SDS011;13899;51.174;4.456;2022-12-11T13:18:41;17.67;;;10.30;;
25917;SDS011;13899;51.174;4.456;2022-12-11T13:26:48;21.08;;;13.10;;
25917;SDS011;13899;51.174;4.456;2022-12-11T13:31:56;24.73;;;13.30;;
25917;SDS011;13899;51.174;4.456;2022-12-11T13:34:32;22.25;;;13.27;;
25917;SDS011;13899;51.174;4.456;2022-12-11T13:37:01;26.63;;;15.02;;
25917;SDS011;13899;51.174;4.456;2022-12-11T13:39:29;27.35;;;15.15;;
25917;SDS011;13899;51.174;4.456;2022-12-11T13:42:02;24.77;;;14.77;;
25917;SDS011;13899;51.174;4.456;2022-12-11T13:44:38;27.52;;;14.30;;
25917;SDS011;13899;51.174;4.456;2022-12-11T13:47:06;26.75;;;14.63;;
25917;SDS011;13899;51.174;4.456;2022-12-11T13:49:38;31.45;;;15.18;;
25917;SDS011;13899;51.174;4.456;2022-12-11T13:52:13;23.77;;;13.18;;
25917;SDS011;13899;51.174;4.456;2022-12-11T13:54:46;17.30;;;11.03;;
25917;SDS011;13899;51.174;4.456;2022-12-11T13:57:23;24.92;;;14.02;;
25917;SDS011;13899;51.174;4.456;2022-12-11T13:59:51;28.05;;;14.05;;
25917;SDS011;13899;51.174;4.456;2022-12-11T14:02:20;28.17;;;13.93;;
25917;SDS011;13899;51.174;4.456;2022-12-11T14:04:54;26.52;;;13.43;;
25917;SDS011;13899;51.174;4.456;2022-12-11T14:07:27;24.30;;;14.25;;
25917;SDS011;13899;51.174;4.456;2022-12-11T14:09:58;26.50;;;14.18;;
25917;SDS011;13899;51.174;4.456;2022-12-11T14:12:26;25.50;;;12.68;;
25917;SDS011;13899;51.174;4.456;2022-12-11T14:14:54;33.55;;;14.48;;
25917;SDS011;13899;51.174;4.456;2022-12-11T14:17:29;25.65;;;13.57;;
25917;SDS011;13899;51.174;4.456;2022-12-11T14:19:57;32.50;;;14.50;;
25917;SDS011;13899;51.174;4.456;2022-12-11T14:22:26;31.00;;;15.73;;
25917;SDS011;13899;51.174;4.456;2022-12-11T14:24:53;35.65;;;16.73;;
25917;SDS011;13899;51.174;4.456;2022-12-11T14:27:21;31.33;;;16.02;;
25917;SDS011;13899;51.174;4.456;2022-12-11T14:29:47;38.83;;;16.60;;
25917;SDS011;13899;51.174;4.456;2022-12-11T14:35:04;36.35;;;16.55;;
25917;SDS011;13899;51.174;4.456;2022-12-11T14:37:32;36.15;;;15.98;;
25917;SDS011;13899;51.174;4.456;2022-12-11T14:40:04;34.60;;;15.80;;
25917;SDS011;13899;51.174;4.456;2022-12-11T14:42:36;32.50;;;17.10;;
25917;SDS011;13899;51.174;4.456;2022-12-11T14:45:11;34.40;;;16.10;;
25917;SDS011;13899;51.174;4.456;2022-12-11T14:47:56;31.88;;;16.73;;
25917;SDS011;13899;51.174;4.456;2022-12-11T14:53:00;37.50;;;17.40;;
25917;SDS011;13899;51.174;4.456;2022-12-11T14:55:31;37.47;;;16.73;;
25917;SDS011;13899;51.174;4.456;2022-12-11T14:58:00;40.95;;;18.08;;
25917;SDS011;13899;51.174;4.456;2022-12-11T15:00:30;37.92;;;18.17;;
25917;SDS011;13899;51.174;4.456;2022-12-11T15:02:58;38.70;;;17.40;;
25917;SDS011;13899;51.174;4.456;2022-12-11T15:05:33;36.28;;;16.85;;
25917;SDS011;13899;51.174;4.456;2022-12-11T15:10:58;43.75;;;19.90;;
25917;SDS011;13899;51.174;4.456;2022-12-11T15:13:33;39.05;;;20.42;;
25917;SDS011;13899;51.174;4.456;2022-12-11T15:16:01;65.57;;;28.08;;
25917;SDS011;13899;51.174;4.456;2022-12-11T15:18:33;44.65;;;22.70;;
25917;SDS011;13899;51.174;4.456;2022-12-11T15:21:05;40.70;;;20.35;;
25917;SDS011;13899;51.174;4.456;2022-12-11T15:23:37;41.63;;;20.45;;
25917;SDS011;13899;51.174;4.456;2022-12-11T15:26:19;46.25;;;21.83;;
25917;SDS011;13899;51.174;4.456;2022-12-11T15:28:59;39.05;;;19.58;;
25917;SDS011;13899;51.174;4.456;2022-12-11T15:31:28;41.47;;;19.80;;
25917;SDS011;13899;51.174;4.456;2022-12-11T15:33:55;34.60;;;19.02;;
25917;SDS011;13899;51.174;4.456;2022-12-11T15:36:28;40.57;;;19.63;;
25917;SDS011;13899;51.174;4.456;2022-12-11T15:38:54;40.30;;;18.17;;
25917;SDS011;13899;51.174;4.456;2022-12-11T15:41:20;39.55;;;20.13;;
25917;SDS011;13899;51.174;4.456;2022-12-11T15:43:51;39.30;;;20.10;;
25917;SDS011;13899;51.174;4.456;2022-12-11T15:46:18;42.65;;;20.73;;
25917;SDS011;13899;51.174;4.456;2022-12-11T15:48:44;47.53;;;21.07;;
25917;SDS011;13899;51.174;4.456;2022-12-11T15:51:11;42.22;;;19.90;;
25917;SDS011;13899;51.174;4.456;2022-12-11T15:53:36;36.47;;;17.97;;
25917;SDS011;13899;51.174;4.456;2022-12-11T15:56:02;42.63;;;21.73;;
25917;SDS011;13899;51.174;4.456;2022-12-11T15:58:28;34.90;;;20.02;;
25917;SDS011;13899;51.174;4.456;2022-12-11T16:00:54;48.57;;;21.17;;
25917;SDS011;13899;51.174;4.456;2022-12-11T16:03:23;38.80;;;19.80;;
25917;SDS011;13899;51.174;4.456;2022-12-11T16:05:49;43.28;;;21.95;;
25917;SDS011;13899;51.174;4.456;2022-12-11T16:10:44;50.45;;;22.60;;
25917;SDS011;13899;51.174;4.456;2022-12-11T16:13:11;39.78;;;21.02;;
25917;SDS011;13899;51.174;4.456;2022-12-11T16:15:38;40.65;;;21.35;;
25917;SDS011;13899;51.174;4.456;2022-12-11T16:18:09;41.40;;;21.02;;
25917;SDS011;13899;51.174;4.456;2022-12-11T16:20:38;39.75;;;19.25;;
25917;SDS011;13899;51.174;4.456;2022-12-11T16:23:05;42.50;;;22.38;;
25917;SDS011;13899;51.174;4.456;2022-12-11T16:25:32;39.20;;;21.08;;
25917;SDS011;13899;51.174;4.456;2022-12-11T16:27:58;40.25;;;21.58;;
25917;SDS011;13899;51.174;4.456;2022-12-11T16:30:26;38.22;;;19.20;;